sensor_id;sensor_type;location;lat;lon;timestamp;pressure;altitude;pressure_sealevel;temperature;humidity
70338;BME280;57757;53.198;19.646;2023-03-15T00:01:13;98659.39;;;4.17;68.18
70338;BME280;57757;53.198;19.646;2023-03-15T00:03:45;98667.36;;;4.14;68.18
70338;BME280;57757;53.198;19.646;2023-03-15T00:06:24;98675.17;;;4.10;68.07
70338;BME280;57757;53.198;19.646;2023-03-15T00:08:52;98690.07;;;4.06;68.10
70338;BME280;57757;53.198;19.646;2023-03-15T00:11:25;98688.23;;;4.03;68.11
70338;BME280;57757;53.198;19.646;2023-03-15T00:13:53;98691.20;;;4.01;68.15
70338;BME280;57757;53.198;19.646;2023-03-15T00:16:20;98686.81;;;3.97;68.11
70338;BME280;57757;53.198;19.646;2023-03-15T00:18:49;98687.04;;;3.95;68.09
70338;BME280;57757;53.198;19.646;2023-03-15T00:21:17;98694.29;;;3.93;68.32
70338;BME280;57757;53.198;19.646;2023-03-15T00:23:44;98702.56;;;3.92;68.41
70338;BME280;57757;53.198;19.646;2023-03-15T00:26:12;98712.27;;;3.88;68.42
70338;BME280;57757;53.198;19.646;2023-03-15T00:28:40;98723.99;;;3.87;68.31
70338;BME280;57757;53.198;19.646;2023-03-15T00:31:14;98731.26;;;3.85;68.34
70338;BME280;57757;53.198;19.646;2023-03-15T00:33:44;98737.16;;;3.82;68.36
70338;BME280;57757;53.198;19.646;2023-03-15T00:36:12;98748.48;;;3.83;68.43
70338;BME280;57757;53.198;19.646;2023-03-15T00:38:41;98759.27;;;3.85;68.52
70338;BME280;57757;53.198;19.646;2023-03-15T00:41:13;98767.23;;;3.83;68.32
70338;BME280;57757;53.198;19.646;2023-03-15T00:43:42;98772.11;;;3.79;68.20
70338;BME280;57757;53.198;19.646;2023-03-15T00:46:12;98771.50;;;3.75;68.41
70338;BME280;57757;53.198;19.646;2023-03-15T00:48:40;98764.84;;;3.72;68.45
70338;BME280;57757;53.198;19.646;2023-03-15T00:51:14;98779.67;;;3.70;68.43
70338;BME280;57757;53.198;19.646;2023-03-15T00:53:44;98789.19;;;3.68;68.50
70338;BME280;57757;53.198;19.646;2023-03-15T00:56:18;98793.83;;;3.68;68.50
70338;BME280;57757;53.198;19.646;2023-03-15T00:58:46;98795.38;;;3.67;68.50
70338;BME280;57757;53.198;19.646;2023-03-15T01:01:17;98809.70;;;3.64;68.49
70338;BME280;57757;53.198;19.646;2023-03-15T01:03:47;98819.58;;;3.60;68.48
70338;BME280;57757;53.198;19.646;2023-03-15T01:06:17;98825.16;;;3.55;68.44
70338;BME280;57757;53.198;19.646;2023-03-15T01:08:45;98826.95;;;3.51;68.57
70338;BME280;57757;53.198;19.646;2023-03-15T01:11:15;98830.38;;;3.51;68.61
70338;BME280;57757;53.198;19.646;2023-03-15T01:13:44;98839.14;;;3.52;68.70
70338;BME280;57757;53.198;19.646;2023-03-15T01:16:13;98840.83;;;3.53;68.78
70338;BME280;57757;53.198;19.646;2023-03-15T01:18:42;98830.87;;;3.53;68.73
70338;BME280;57757;53.198;19.646;2023-03-15T01:21:12;98835.00;;;3.53;68.76
70338;BME280;57757;53.198;19.646;2023-03-15T01:23:41;98842.73;;;3.52;68.75
70338;BME280;57757;53.198;19.646;2023-03-15T01:26:11;98846.42;;;3.48;68.68
70338;BME280;57757;53.198;19.646;2023-03-15T01:28:39;98859.84;;;3.46;68.82
70338;BME280;57757;53.198;19.646;2023-03-15T01:31:27;98873.33;;;3.41;68.64
70338;BME280;57757;53.198;19.646;2023-03-15T01:33:57;98883.05;;;3.34;68.70
70338;BME280;57757;53.198;19.646;2023-03-15T01:36:26;98893.05;;;3.32;68.93
70338;BME280;57757;53.198;19.646;2023-03-15T01:38:53;98893.06;;;3.32;68.85
70338;BME280;57757;53.198;19.646;2023-03-15T01:41:21;98889.98;;;3.31;69.00
70338;BME280;57757;53.198;19.646;2023-03-15T01:43:51;98894.61;;;3.32;68.98
70338;BME280;57757;53.198;19.646;2023-03-15T01:46:28;98901.85;;;3.30;69.04
70338;BME280;57757;53.198;19.646;2023-03-15T01:52:08;98909.60;;;3.29;69.07
70338;BME280;57757;53.198;19.646;2023-03-15T01:54:44;98925.71;;;3.31;69.17
70338;BME280;57757;53.198;19.646;2023-03-15T01:57:34;98935.34;;;3.30;69.26
70338;BME280;57757;53.198;19.646;2023-03-15T02:00:07;98928.64;;;3.30;69.22
70338;BME280;57757;53.198;19.646;2023-03-15T02:02:54;98919.06;;;3.29;69.13
70338;BME280;57757;53.198;19.646;2023-03-15T02:05:26;98922.13;;;3.30;69.25
70338;BME280;57757;53.198;19.646;2023-03-15T02:07:55;98916.48;;;3.28;69.22
70338;BME280;57757;53.198;19.646;2023-03-15T02:10:29;98916.48;;;3.27;69.29
70338;BME280;57757;53.198;19.646;2023-03-15T02:13:01;98920.63;;;3.27;69.31
70338;BME280;57757;53.198;19.646;2023-03-15T02:15:29;98939.18;;;3.26;69.29
70338;BME280;57757;53.198;19.646;2023-03-15T02:17:57;98948.96;;;3.28;69.37
70338;BME280;57757;53.198;19.646;2023-03-15T02:21:16;98954.27;;;3.29;69.39
70338;BME280;57757;53.198;19.646;2023-03-15T02:23:23;98963.15;;;3.33;69.46
70338;BME280;57757;53.198;19.646;2023-03-15T02:28:39;98981.32;;;3.36;69.33
70338;BME280;57757;53.198;19.646;2023-03-15T02:31:07;98989.58;;;3.36;69.49
70338;BME280;57757;53.198;19.646;2023-03-15T02:33:49;99003.14;;;3.36;69.37
70338;BME280;57757;53.198;19.646;2023-03-15T02:36:20;99017.38;;;3.37;69.52
70338;BME280;57757;53.198;19.646;2023-03-15T02:38:49;99024.42;;;3.38;69.31
70338;BME280;57757;53.198;19.646;2023-03-15T02:41:34;99024.25;;;3.38;69.38
70338;BME280;57757;53.198;19.646;2023-03-15T02:44:13;99029.42;;;3.37;69.37
70338;BME280;57757;53.198;19.646;2023-03-15T02:46:43;99037.52;;;3.37;69.42
70338;BME280;57757;53.198;19.646;2023-03-15T02:49:12;99041.81;;;3.36;69.43
70338;BME280;57757;53.198;19.646;2023-03-15T02:51:43;99057.12;;;3.34;69.34
70338;BME280;57757;53.198;19.646;2023-03-15T02:54:11;99063.83;;;3.33;69.41
70338;BME280;57757;53.198;19.646;2023-03-15T02:56:39;99068.50;;;3.32;69.31
70338;BME280;57757;53.198;19.646;2023-03-15T02:59:07;99063.55;;;3.29;69.45
70338;BME280;57757;53.198;19.646;2023-03-15T03:01:35;99062.89;;;3.26;69.28
70338;BME280;57757;53.198;19.646;2023-03-15T03:04:06;99074.10;;;3.23;69.24
70338;BME280;57757;53.198;19.646;2023-03-15T03:06:34;99073.96;;;3.21;69.52
70338;BME280;57757;53.198;19.646;2023-03-15T03:09:02;99077.06;;;3.19;69.48
70338;BME280;57757;53.198;19.646;2023-03-15T03:11:30;99083.96;;;3.17;69.43
70338;BME280;57757;53.198;19.646;2023-03-15T03:13:58;99080.20;;;3.15;69.46
70338;BME280;57757;53.198;19.646;2023-03-15T03:16:27;99085.69;;;3.17;69.53
70338;BME280;57757;53.198;19.646;2023-03-15T03:18:55;99088.77;;;3.17;69.52
70338;BME280;57757;53.198;19.646;2023-03-15T03:21:24;99096.15;;;3.18;69.60
70338;BME280;57757;53.198;19.646;2023-03-15T03:23:51;99103.70;;;3.19;69.47
70338;BME280;57757;53.198;19.646;2023-03-15T03:26:21;99105.79;;;3.17;69.56
70338;BME280;57757;53.198;19.646;2023-03-15T03:28:54;99111.45;;;3.16;69.69
70338;BME280;57757;53.198;19.646;2023-03-15T03:31:24;99119.88;;;3.17;69.57
70338;BME280;57757;53.198;19.646;2023-03-15T03:33:54;99133.97;;;3.17;69.46
70338;BME280;57757;53.198;19.646;2023-03-15T03:36:23;99145.98;;;3.18;69.40
70338;BME280;57757;53.198;19.646;2023-03-15T03:38:52;99160.08;;;3.16;69.50
70338;BME280;57757;53.198;19.646;2023-03-15T03:41:20;99168.17;;;3.14;69.49
70338;BME280;57757;53.198;19.646;2023-03-15T03:43:48;99176.46;;;3.10;69.39
70338;BME280;57757;53.198;19.646;2023-03-15T03:46:16;99178.19;;;3.08;69.47
70338;BME280;57757;53.198;19.646;2023-03-15T03:48:43;99180.98;;;3.05;69.41
70338;BME280;57757;53.198;19.646;2023-03-15T03:51:11;99189.38;;;3.06;69.54
70338;BME280;57757;53.198;19.646;2023-03-15T03:53:40;99193.14;;;3.07;69.58
70338;BME280;57757;53.198;19.646;2023-03-15T03:56:07;99192.80;;;3.08;69.44
70338;BME280;57757;53.198;19.646;2023-03-15T03:58:35;99198.64;;;3.07;69.44
70338;BME280;57757;53.198;19.646;2023-03-15T04:01:03;99201.75;;;3.04;69.46
70338;BME280;57757;53.198;19.646;2023-03-15T04:03:31;99205.21;;;3.02;69.35
70338;BME280;57757;53.198;19.646;2023-03-15T04:05:59;99205.05;;;3.00;69.43
70338;BME280;57757;53.198;19.646;2023-03-15T04:08:27;99208.02;;;2.97;69.33
70338;BME280;57757;53.198;19.646;2023-03-15T04:10:56;99212.50;;;2.94;69.46
70338;BME280;57757;53.198;19.646;2023-03-15T04:13:24;99216.11;;;2.91;69.41
70338;BME280;57757;53.198;19.646;2023-03-15T04:15:52;99214.24;;;2.88;69.43
70338;BME280;57757;53.198;19.646;2023-03-15T04:18:25;99212.54;;;2.89;69.48
70338;BME280;57757;53.198;19.646;2023-03-15T04:20:52;99210.51;;;2.85;69.21
70338;BME280;57757;53.198;19.646;2023-03-15T04:23:23;99210.02;;;2.82;69.28
70338;BME280;57757;53.198;19.646;2023-03-15T04:25:51;99216.71;;;2.82;69.26
70338;BME280;57757;53.198;19.646;2023-03-15T04:28:21;99225.66;;;2.79;69.24
70338;BME280;57757;53.198;19.646;2023-03-15T04:30:51;99234.80;;;2.74;69.13
70338;BME280;57757;53.198;19.646;2023-03-15T04:33:26;99236.23;;;2.67;68.99
70338;BME280;57757;53.198;19.646;2023-03-15T04:35:54;99235.05;;;2.60;69.08
70338;BME280;57757;53.198;19.646;2023-03-15T04:38:24;99234.93;;;2.56;69.16
70338;BME280;57757;53.198;19.646;2023-03-15T04:40:56;99237.19;;;2.49;68.99
70338;BME280;57757;53.198;19.646;2023-03-15T04:43:23;99239.98;;;2.45;69.25
70338;BME280;57757;53.198;19.646;2023-03-15T04:45:54;99247.70;;;2.41;69.03
70338;BME280;57757;53.198;19.646;2023-03-15T04:48:22;99248.08;;;2.37;69.29
70338;BME280;57757;53.198;19.646;2023-03-15T04:50:50;99256.00;;;2.32;69.22
70338;BME280;57757;53.198;19.646;2023-03-15T04:53:17;99264.77;;;2.26;69.32
70338;BME280;57757;53.198;19.646;2023-03-15T04:55:45;99273.55;;;2.20;69.16
70338;BME280;57757;53.198;19.646;2023-03-15T04:58:12;99280.95;;;2.16;69.32
70338;BME280;57757;53.198;19.646;2023-03-15T05:00:40;99291.07;;;2.13;69.46
70338;BME280;57757;53.198;19.646;2023-03-15T05:03:08;99295.20;;;2.09;69.24
70338;BME280;57757;53.198;19.646;2023-03-15T05:05:35;99296.60;;;2.04;69.30
70338;BME280;57757;53.198;19.646;2023-03-15T05:08:04;99303.97;;;2.00;69.34
70338;BME280;57757;53.198;19.646;2023-03-15T05:10:32;99308.63;;;1.99;69.40
70338;BME280;57757;53.198;19.646;2023-03-15T05:12:59;99312.91;;;1.97;69.44
70338;BME280;57757;53.198;19.646;2023-03-15T05:15:27;99318.23;;;1.95;69.38
70338;BME280;57757;53.198;19.646;2023-03-15T05:17:55;99318.58;;;1.91;69.44
70338;BME280;57757;53.198;19.646;2023-03-15T05:20:23;99310.88;;;1.85;69.46
70338;BME280;57757;53.198;19.646;2023-03-15T05:22:51;99310.72;;;1.78;69.40
70338;BME280;57757;53.198;19.646;2023-03-15T05:25:21;99316.05;;;1.72;69.42
70338;BME280;57757;53.198;19.646;2023-03-15T05:27:51;99318.98;;;1.66;69.44
70338;BME280;57757;53.198;19.646;2023-03-15T05:30:19;99324.64;;;1.60;69.44
70338;BME280;57757;53.198;19.646;2023-03-15T05:32:48;99332.36;;;1.54;69.57
70338;BME280;57757;53.198;19.646;2023-03-15T05:35:17;99335.45;;;1.48;69.52
70338;BME280;57757;53.198;19.646;2023-03-15T05:37:45;99335.45;;;1.45;69.70
70338;BME280;57757;53.198;19.646;2023-03-15T05:40:13;99341.27;;;1.42;69.61
70338;BME280;57757;53.198;19.646;2023-03-15T05:42:41;99348.30;;;1.40;69.77
70338;BME280;57757;53.198;19.646;2023-03-15T05:45:10;99351.54;;;1.39;69.64
70338;BME280;57757;53.198;19.646;2023-03-15T05:47:37;99355.66;;;1.37;69.78
70338;BME280;57757;53.198;19.646;2023-03-15T05:50:06;99364.05;;;1.36;69.67
70338;BME280;57757;53.198;19.646;2023-03-15T05:52:34;99365.77;;;1.34;69.60
70338;BME280;57757;53.198;19.646;2023-03-15T05:55:02;99375.35;;;1.31;69.64
70338;BME280;57757;53.198;19.646;2023-03-15T05:57:30;99379.29;;;1.30;69.70
70338;BME280;57757;53.198;19.646;2023-03-15T06:00:00;99378.95;;;1.29;69.71
70338;BME280;57757;53.198;19.646;2023-03-15T06:02:27;99381.52;;;1.30;69.70
70338;BME280;57757;53.198;19.646;2023-03-15T06:04:55;99384.60;;;1.29;69.71
70338;BME280;57757;53.198;19.646;2023-03-15T06:07:23;99390.59;;;1.28;69.77
70338;BME280;57757;53.198;19.646;2023-03-15T06:09:50;99394.20;;;1.28;69.92
70338;BME280;57757;53.198;19.646;2023-03-15T06:12:18;99398.82;;;1.29;69.85
70338;BME280;57757;53.198;19.646;2023-03-15T06:14:50;99398.82;;;1.28;69.85
70338;BME280;57757;53.198;19.646;2023-03-15T06:17:18;99409.79;;;1.26;69.72
70338;BME280;57757;53.198;19.646;2023-03-15T06:19:46;99420.91;;;1.24;69.69
70338;BME280;57757;53.198;19.646;2023-03-15T06:22:14;99427.93;;;1.24;69.67
70338;BME280;57757;53.198;19.646;2023-03-15T06:24:41;99430.16;;;1.26;69.92
70338;BME280;57757;53.198;19.646;2023-03-15T06:27:09;99436.50;;;1.30;69.99
70338;BME280;57757;53.198;19.646;2023-03-15T06:29:37;99439.42;;;1.34;69.96
70338;BME280;57757;53.198;19.646;2023-03-15T06:32:11;99444.56;;;1.37;70.06
70338;BME280;57757;53.198;19.646;2023-03-15T06:34:38;99451.60;;;1.39;70.05
70338;BME280;57757;53.198;19.646;2023-03-15T06:37:08;99456.40;;;1.42;69.94
70338;BME280;57757;53.198;19.646;2023-03-15T06:39:36;99457.94;;;1.46;70.14
70338;BME280;57757;53.198;19.646;2023-03-15T06:42:08;99462.92;;;1.51;70.07
70338;BME280;57757;53.198;19.646;2023-03-15T06:44:37;99475.77;;;1.57;70.01
70338;BME280;57757;53.198;19.646;2023-03-15T06:47:06;99477.84;;;1.60;70.13
70338;BME280;57757;53.198;19.646;2023-03-15T06:49:34;99478.36;;;1.65;70.16
70338;BME280;57757;53.198;19.646;2023-03-15T06:52:06;99483.17;;;1.71;70.09
70338;BME280;57757;53.198;19.646;2023-03-15T06:54:34;99482.64;;;1.73;69.95
70338;BME280;57757;53.198;19.646;2023-03-15T06:57:02;99486.25;;;1.74;70.08
70338;BME280;57757;53.198;19.646;2023-03-15T06:59:34;99497.22;;;1.74;69.99
70338;BME280;57757;53.198;19.646;2023-03-15T07:02:05;99499.27;;;1.74;70.12
70338;BME280;57757;53.198;19.646;2023-03-15T07:04:37;99491.23;;;1.75;70.14
70338;BME280;57757;53.198;19.646;2023-03-15T07:07:15;99495.86;;;1.80;70.22
70338;BME280;57757;53.198;19.646;2023-03-15T07:09:42;99505.64;;;1.89;70.38
70338;BME280;57757;53.198;19.646;2023-03-15T07:12:11;99510.96;;;1.98;70.46
70338;BME280;57757;53.198;19.646;2023-03-15T07:14:40;99511.80;;;2.11;70.43
70338;BME280;57757;53.198;19.646;2023-03-15T07:17:08;99513.02;;;2.21;70.29
70338;BME280;57757;53.198;19.646;2023-03-15T07:19:36;99525.52;;;2.31;70.26
70338;BME280;57757;53.198;19.646;2023-03-15T07:22:24;99534.11;;;2.40;70.09
70338;BME280;57757;53.198;19.646;2023-03-15T07:24:55;99545.58;;;2.49;70.05
70338;BME280;57757;53.198;19.646;2023-03-15T07:27:28;99549.02;;;2.56;70.07
70338;BME280;57757;53.198;19.646;2023-03-15T07:29:57;99559.66;;;2.62;69.93
70338;BME280;57757;53.198;19.646;2023-03-15T07:32:25;99569.77;;;2.67;69.95
70338;BME280;57757;53.198;19.646;2023-03-15T07:34:54;99571.83;;;2.68;69.53
70338;BME280;57757;53.198;19.646;2023-03-15T07:37:26;99574.58;;;2.66;69.52
70338;BME280;57757;53.198;19.646;2023-03-15T07:39:57;99574.40;;;2.66;69.42
70338;BME280;57757;53.198;19.646;2023-03-15T07:42:27;99572.34;;;2.67;69.61
70338;BME280;57757;53.198;19.646;2023-03-15T07:44:56;99570.45;;;2.70;69.54
70338;BME280;57757;53.198;19.646;2023-03-15T07:47:24;99573.02;;;2.75;69.53
70338;BME280;57757;53.198;19.646;2023-03-15T07:49:53;99579.52;;;2.80;69.62
70338;BME280;57757;53.198;19.646;2023-03-15T07:52:22;99570.94;;;2.84;69.57
70338;BME280;57757;53.198;19.646;2023-03-15T07:54:52;99577.46;;;2.87;69.59
70338;BME280;57757;53.198;19.646;2023-03-15T07:57:20;99581.40;;;2.92;69.56
70338;BME280;57757;53.198;19.646;2023-03-15T07:59:51;99578.48;;;2.94;69.39
70338;BME280;57757;53.198;19.646;2023-03-15T08:02:30;99576.59;;;2.93;69.11
70338;BME280;57757;53.198;19.646;2023-03-15T08:05:05;99575.05;;;2.89;69.12
70338;BME280;57757;53.198;19.646;2023-03-15T08:07:34;99582.10;;;2.86;69.29
70338;BME280;57757;53.198;19.646;2023-03-15T08:10:03;99589.66;;;2.87;69.43
70338;BME280;57757;53.198;19.646;2023-03-15T08:12:34;99591.20;;;2.91;69.58
70338;BME280;57757;53.198;19.646;2023-03-15T08:15:02;99601.48;;;2.97;69.59
70338;BME280;57757;53.198;19.646;2023-03-15T08:17:33;99608.33;;;3.02;69.28
70338;BME280;57757;53.198;19.646;2023-03-15T08:20:01;99608.70;;;2.97;68.98
70338;BME280;57757;53.198;19.646;2023-03-15T08:22:29;99613.17;;;2.93;69.03
70338;BME280;57757;53.198;19.646;2023-03-15T08:24:56;99609.58;;;2.90;69.14
70338;BME280;57757;53.198;19.646;2023-03-15T08:27:24;99610.45;;;2.86;69.04
70338;BME280;57757;53.198;19.646;2023-03-15T08:29:52;99616.45;;;2.87;69.14
70338;BME280;57757;53.198;19.646;2023-03-15T08:32:20;99618.83;;;2.88;69.22
70338;BME280;57757;53.198;19.646;2023-03-15T08:34:48;99617.97;;;2.94;69.29
70338;BME280;57757;53.198;19.646;2023-03-15T08:37:16;99625.00;;;3.03;69.38
70338;BME280;57757;53.198;19.646;2023-03-15T08:39:44;99627.04;;;3.14;69.36
70338;BME280;57757;53.198;19.646;2023-03-15T08:42:13;99631.99;;;3.26;69.36
70338;BME280;57757;53.198;19.646;2023-03-15T08:44:40;99635.56;;;3.39;69.25
70338;BME280;57757;53.198;19.646;2023-03-15T08:47:08;99638.98;;;3.47;68.92
70338;BME280;57757;53.198;19.646;2023-03-15T08:49:36;99640.67;;;3.52;69.06
70338;BME280;57757;53.198;19.646;2023-03-15T08:52:04;99638.77;;;3.56;68.83
70338;BME280;57757;53.198;19.646;2023-03-15T08:54:33;99637.19;;;3.61;68.71
70338;BME280;57757;53.198;19.646;2023-03-15T08:57:10;99645.61;;;3.65;68.80
70338;BME280;57757;53.198;19.646;2023-03-15T08:59:40;99647.46;;;3.72;68.77
70338;BME280;57757;53.198;19.646;2023-03-15T09:02:10;99649.82;;;3.84;69.15
70338;BME280;57757;53.198;19.646;2023-03-15T09:04:40;99658.84;;;4.02;69.02
70338;BME280;57757;53.198;19.646;2023-03-15T09:07:08;99661.55;;;4.11;68.63
70338;BME280;57757;53.198;19.646;2023-03-15T09:09:38;99668.38;;;4.19;68.80
70338;BME280;57757;53.198;19.646;2023-03-15T09:12:06;99675.20;;;4.30;68.61
70338;BME280;57757;53.198;19.646;2023-03-15T09:14:34;99679.84;;;4.33;68.23
70338;BME280;57757;53.198;19.646;2023-03-15T09:17:04;99677.42;;;4.33;68.14
70338;BME280;57757;53.198;19.646;2023-03-15T09:19:36;99681.18;;;4.37;68.52
70338;BME280;57757;53.198;19.646;2023-03-15T09:22:05;99687.70;;;4.41;68.48
70338;BME280;57757;53.198;19.646;2023-03-15T09:24:45;99697.50;;;4.44;68.35
70338;BME280;57757;53.198;19.646;2023-03-15T09:27:21;99700.60;;;4.41;68.06
70338;BME280;57757;53.198;19.646;2023-03-15T09:29:50;99697.88;;;4.36;68.06
70338;BME280;57757;53.198;19.646;2023-03-15T09:32:18;99699.80;;;4.32;67.98
70338;BME280;57757;53.198;19.646;2023-03-15T09:34:47;99702.56;;;4.31;68.26
70338;BME280;57757;53.198;19.646;2023-03-15T09:37:17;99699.30;;;4.28;68.16
70338;BME280;57757;53.198;19.646;2023-03-15T09:39:44;99697.94;;;4.26;68.01
70338;BME280;57757;53.198;19.646;2023-03-15T09:42:19;99700.70;;;4.27;68.13
70338;BME280;57757;53.198;19.646;2023-03-15T09:45:02;99701.52;;;4.31;68.24
70338;BME280;57757;53.198;19.646;2023-03-15T09:56:21;99723.75;;;4.28;67.95
70338;BME280;57757;53.198;19.646;2023-03-15T09:58:54;99721.84;;;4.31;67.79
70338;BME280;57757;53.198;19.646;2023-03-15T10:01:34;99719.95;;;4.32;67.74
70338;BME280;57757;53.198;19.646;2023-03-15T10:06:53;99725.20;;;4.46;67.94
70338;BME280;57757;53.198;19.646;2023-03-15T10:09:27;99733.06;;;4.56;67.80
70338;BME280;57757;53.198;19.646;2023-03-15T10:20:40;99730.27;;;4.62;67.44
70338;BME280;57757;53.198;19.646;2023-03-15T10:23:18;99729.72;;;4.65;67.58
70338;BME280;57757;53.198;19.646;2023-03-15T10:25:49;99731.18;;;4.78;67.84
70338;BME280;57757;53.198;19.646;2023-03-15T10:28:28;99730.55;;;4.93;67.56
70338;BME280;57757;53.198;19.646;2023-03-15T10:31:12;99740.84;;;4.98;67.29
70338;BME280;57757;53.198;19.646;2023-03-15T10:33:52;99743.89;;;5.05;67.46
70338;BME280;57757;53.198;19.646;2023-03-15T10:36:24;99747.66;;;5.07;66.96
70338;BME280;57757;53.198;19.646;2023-03-15T10:38:52;99751.15;;;5.02;66.78
70338;BME280;57757;53.198;19.646;2023-03-15T10:44:05;99756.69;;;5.00;67.00
70338;BME280;57757;53.198;19.646;2023-03-15T10:46:34;99761.50;;;5.02;66.94
70338;BME280;57757;53.198;19.646;2023-03-15T10:49:11;99759.10;;;5.01;66.74
70338;BME280;57757;53.198;19.646;2023-03-15T10:51:48;99758.06;;;5.01;66.77
70338;BME280;57757;53.198;19.646;2023-03-15T10:54:18;99766.15;;;5.02;66.74
70338;BME280;57757;53.198;19.646;2023-03-15T10:57:10;99769.80;;;4.98;66.62
70338;BME280;57757;53.198;19.646;2023-03-15T10:59:53;99765.88;;;4.92;66.63
70338;BME280;57757;53.198;19.646;2023-03-15T11:02:23;99773.33;;;4.87;66.45
70338;BME280;57757;53.198;19.646;2023-03-15T11:04:58;99774.41;;;4.79;66.40
70338;BME280;57757;53.198;19.646;2023-03-15T11:07:28;99773.91;;;4.76;66.63
70338;BME280;57757;53.198;19.646;2023-03-15T11:10:01;99772.52;;;4.78;66.63
70338;BME280;57757;53.198;19.646;2023-03-15T11:12:31;99777.15;;;4.81;66.91
70338;BME280;57757;53.198;19.646;2023-03-15T11:15:11;99778.85;;;4.85;66.62
70338;BME280;57757;53.198;19.646;2023-03-15T11:17:51;99782.42;;;4.91;66.67
70338;BME280;57757;53.198;19.646;2023-03-15T11:20:26;99783.78;;;4.95;66.61
70338;BME280;57757;53.198;19.646;2023-03-15T11:22:58;99785.98;;;5.01;66.47
70338;BME280;57757;53.198;19.646;2023-03-15T11:25:29;99788.54;;;5.03;66.40
70338;BME280;57757;53.198;19.646;2023-03-15T11:27:59;99790.48;;;4.98;66.25
70338;BME280;57757;53.198;19.646;2023-03-15T11:30:29;99788.45;;;4.93;66.16
70338;BME280;57757;53.198;19.646;2023-03-15T11:33:02;99789.17;;;4.88;66.39
70338;BME280;57757;53.198;19.646;2023-03-15T11:35:39;99788.67;;;4.86;66.19
70338;BME280;57757;53.198;19.646;2023-03-15T11:38:32;99792.46;;;4.84;66.28
70338;BME280;57757;53.198;19.646;2023-03-15T11:46:56;99791.33;;;4.73;66.15
70338;BME280;57757;53.198;19.646;2023-03-15T11:52:05;99799.95;;;4.72;66.26
70338;BME280;57757;53.198;19.646;2023-03-15T11:54:33;99801.34;;;4.70;66.07
70338;BME280;57757;53.198;19.646;2023-03-15T11:57:04;99802.91;;;4.68;66.00
70338;BME280;57757;53.198;19.646;2023-03-15T11:59:36;99800.68;;;4.64;65.78
70338;BME280;57757;53.198;19.646;2023-03-15T12:04:45;99809.80;;;4.68;66.00
70338;BME280;57757;53.198;19.646;2023-03-15T12:17:55;99806.20;;;4.63;65.77
70338;BME280;57757;53.198;19.646;2023-03-15T12:20:40;99806.20;;;4.62;65.97
70338;BME280;57757;53.198;19.646;2023-03-15T12:23:30;99811.39;;;4.60;65.92
70338;BME280;57757;53.198;19.646;2023-03-15T12:28:40;99814.98;;;4.65;66.11
70338;BME280;57757;53.198;19.646;2023-03-15T12:31:12;99814.06;;;4.75;65.96
70338;BME280;57757;53.198;19.646;2023-03-15T12:33:58;99811.59;;;4.85;65.97
70338;BME280;57757;53.198;19.646;2023-03-15T12:36:36;99812.02;;;4.98;65.72
70338;BME280;57757;53.198;19.646;2023-03-15T12:41:48;99821.39;;;5.13;65.43
70338;BME280;57757;53.198;19.646;2023-03-15T12:47:09;99827.20;;;5.20;65.22
70338;BME280;57757;53.198;19.646;2023-03-15T12:49:44;99825.11;;;5.20;65.41
70338;BME280;57757;53.198;19.646;2023-03-15T12:52:26;99828.39;;;5.21;65.46
70338;BME280;57757;53.198;19.646;2023-03-15T12:55:13;99826.34;;;5.21;65.30
70338;BME280;57757;53.198;19.646;2023-03-15T12:57:49;99832.70;;;5.22;65.15
70338;BME280;57757;53.198;19.646;2023-03-15T13:00:21;99829.53;;;5.51;65.73
70338;BME280;57757;53.198;19.646;2023-03-15T13:02:57;99827.86;;;6.17;66.33
70338;BME280;57757;53.198;19.646;2023-03-15T13:11:39;99819.93;;;7.90;64.84
70338;BME280;57757;53.198;19.646;2023-03-15T13:23:18;99820.94;;;9.24;63.51
70338;BME280;57757;53.198;19.646;2023-03-15T13:31:36;99836.66;;;8.12;62.47
70338;BME280;57757;53.198;19.646;2023-03-15T13:34:20;99835.80;;;7.73;62.50
70338;BME280;57757;53.198;19.646;2023-03-15T13:36:55;99841.36;;;7.41;62.87
70338;BME280;57757;53.198;19.646;2023-03-15T13:39:26;99846.73;;;7.20;62.85
70338;BME280;57757;53.198;19.646;2023-03-15T13:41:59;99847.44;;;7.18;63.21
70338;BME280;57757;53.198;19.646;2023-03-15T13:44:28;99855.61;;;7.15;62.50
70338;BME280;57757;53.198;19.646;2023-03-15T13:46:57;99860.98;;;7.03;62.54
70338;BME280;57757;53.198;19.646;2023-03-15T13:49:30;99866.49;;;6.92;62.57
70338;BME280;57757;53.198;19.646;2023-03-15T13:52:02;99867.15;;;6.95;62.90
70338;BME280;57757;53.198;19.646;2023-03-15T13:54:34;99868.31;;;6.97;62.86
70338;BME280;57757;53.198;19.646;2023-03-15T13:57:10;99876.23;;;6.87;62.82
70338;BME280;57757;53.198;19.646;2023-03-15T13:59:46;99874.92;;;6.82;62.77
70338;BME280;57757;53.198;19.646;2023-03-15T14:02:19;99880.95;;;6.83;62.78
70338;BME280;57757;53.198;19.646;2023-03-15T14:05:09;99876.44;;;6.85;62.84
70338;BME280;57757;53.198;19.646;2023-03-15T14:07:42;99875.42;;;6.83;62.66
70338;BME280;57757;53.198;19.646;2023-03-15T14:12:45;99880.70;;;6.63;62.60
70338;BME280;57757;53.198;19.646;2023-03-15T14:15:19;99883.61;;;6.64;63.03
70338;BME280;57757;53.198;19.646;2023-03-15T14:20:43;99887.09;;;6.62;62.58
70338;BME280;57757;53.198;19.646;2023-03-15T14:23:14;99889.32;;;6.51;62.60
70338;BME280;57757;53.198;19.646;2023-03-15T14:25:50;99889.05;;;6.44;62.88
70338;BME280;57757;53.198;19.646;2023-03-15T14:28:18;99889.27;;;6.39;62.81
70338;BME280;57757;53.198;19.646;2023-03-15T14:30:56;99890.20;;;6.33;62.70
70338;BME280;57757;53.198;19.646;2023-03-15T14:33:32;99890.80;;;6.26;62.68
70338;BME280;57757;53.198;19.646;2023-03-15T14:36:03;99890.89;;;6.17;62.68
70338;BME280;57757;53.198;19.646;2023-03-15T14:38:38;99894.98;;;6.07;62.37
70338;BME280;57757;53.198;19.646;2023-03-15T14:43:55;99900.84;;;5.86;62.65
70338;BME280;57757;53.198;19.646;2023-03-15T14:46:23;99898.45;;;5.81;62.60
70338;BME280;57757;53.198;19.646;2023-03-15T14:48:52;99896.95;;;5.76;62.50